createdAt,value
2023-06-04T17:18:22.884Z,101301.13
2023-06-04T17:20:54.448Z,101299.55
2023-06-04T17:23:26.858Z,101301.02
2023-06-04T17:25:58.343Z,101300.20
2023-06-04T17:28:28.869Z,101293.67
2023-06-04T17:31:00.202Z,101296.96
2023-06-04T17:33:33.774Z,101295.16
2023-06-04T17:36:05.644Z,101295.73
2023-06-04T17:38:36.479Z,101294.96
2023-06-04T17:41:07.323Z,101296.27
2023-06-04T17:43:40.200Z,101294.77
2023-06-04T17:46:10.956Z,101295.21
2023-06-04T17:48:42.113Z,101298.45
2023-06-04T17:51:14.411Z,101298.55
2023-06-04T17:53:45.313Z,101296.84
2023-06-04T17:56:15.821Z,101299.20
2023-06-04T17:58:46.340Z,101298.51
2023-06-04T18:01:16.983Z,101294.27
2023-06-04T18:03:51.010Z,101296.60
2023-06-04T18:06:21.949Z,101295.08
2023-06-04T18:08:52.512Z,101297.98
2023-06-04T18:11:23.301Z,101300.84
2023-06-04T18:13:53.774Z,101297.52
2023-06-04T18:16:24.696Z,101299.91
2023-06-04T18:18:55.313Z,101302.86
2023-06-04T18:21:25.872Z,101296.80
2023-06-04T18:23:57.984Z,101301.33
2023-06-04T18:26:28.700Z,101297.67
2023-06-04T18:28:59.400Z,101299.52
2023-06-04T18:31:30.199Z,101301.17
2023-06-04T18:34:02.224Z,101304.80
2023-06-04T18:36:33.349Z,101302.03
2023-06-04T18:39:04.749Z,101306.43
2023-06-04T18:41:35.740Z,101303.20
2023-06-04T18:44:07.215Z,101306.66
2023-06-04T18:46:38.266Z,101309.39
2023-06-04T18:49:09.338Z,101308.89
2023-06-04T18:51:40.887Z,101305.42
2023-06-04T18:54:11.857Z,101303.98
2023-06-04T18:56:43.105Z,101306.05
2023-06-04T18:59:16.337Z,101304.83
2023-06-04T19:01:47.788Z,101308.48
2023-06-04T19:04:18.913Z,101311.89
2023-06-04T19:06:49.579Z,101310.76
2023-06-04T19:09:20.399Z,101312.27
2023-06-04T19:11:51.741Z,101312.88
2023-06-04T19:14:22.408Z,101316.92
2023-06-04T19:16:52.917Z,101323.08
2023-06-04T19:19:23.996Z,101326.01
2023-06-04T19:21:54.509Z,101325.30
2023-06-04T19:24:25.150Z,101323.55
2023-06-04T19:26:56.007Z,101326.62
2023-06-04T19:29:26.545Z,101328.52
2023-06-04T19:31:57.542Z,101331.23
2023-06-04T19:34:29.101Z,101334.69
2023-06-04T19:37:00.118Z,101332.52
2023-06-04T19:39:31.127Z,101337.75
2023-06-04T19:42:01.623Z,101338.85
2023-06-04T19:44:32.141Z,101343.17
2023-06-04T19:47:04.081Z,101344.78
2023-06-04T19:49:35.788Z,101351.98
2023-06-04T19:52:06.703Z,101353.11
2023-06-04T19:54:37.548Z,101355.84
2023-06-04T19:57:11.050Z,101353.19
2023-06-04T19:59:42.792Z,101358.65
2023-06-04T20:02:13.468Z,101359.23
2023-06-04T20:04:44.149Z,101358.73
2023-06-04T20:07:14.876Z,101359.14
2023-06-04T20:09:46.080Z,101360.27
2023-06-04T20:12:17.399Z,101361.29
2023-06-04T20:14:48.042Z,101365.20
2023-06-04T20:17:18.888Z,101367.38
2023-06-04T20:19:49.736Z,101369.85
2023-06-04T20:22:20.297Z,101372.35
2023-06-04T20:24:51.201Z,101373.94
2023-06-04T20:27:21.676Z,101372.17
2023-06-04T20:29:52.560Z,101378.81
2023-06-04T20:32:24.551Z,101380.77
2023-06-04T20:34:55.503Z,101385.84
2023-06-04T20:37:25.987Z,101389.44
2023-06-04T20:39:56.907Z,101390.23
2023-06-04T20:42:27.501Z,101392.55
2023-06-04T20:44:58.051Z,101391.38
2023-06-04T20:47:29.281Z,101389.73
2023-06-04T20:49:59.949Z,101393.60
2023-06-04T20:52:30.535Z,101398.63
2023-06-04T20:55:01.125Z,101397.33
2023-06-04T20:57:31.737Z,101397.16
2023-06-04T21:00:02.237Z,101399.63
2023-06-04T21:02:33.774Z,101399.04
2023-06-04T21:05:05.453Z,101398.16
2023-06-04T21:07:36.201Z,101395.44
2023-06-04T21:10:08.462Z,101396.66
2023-06-04T21:12:39.168Z,101395.52
2023-06-04T21:15:11.657Z,101396.13
2023-06-04T21:17:42.408Z,101396.14
2023-06-04T21:20:14.439Z,101392.17
2023-06-04T21:22:45.134Z,101394.27
2023-06-04T21:25:15.709Z,101391.21
2023-06-04T21:27:50.239Z,101391.81
2023-06-04T21:30:21.378Z,101390.29
2023-06-04T21:32:51.978Z,101390.02
2023-06-04T21:35:23.310Z,101389.29
2023-06-04T21:37:54.071Z,101396.60
2023-06-04T21:40:24.985Z,101397.13
2023-06-04T21:42:55.695Z,101397.36
2023-06-04T21:45:26.838Z,101397.81
2023-06-04T21:47:58.571Z,101399.20
2023-06-04T21:50:29.449Z,101403.64
2023-06-04T21:53:00.358Z,101404.53
2023-06-04T21:55:31.435Z,101411.26
2023-06-04T21:58:02.097Z,101413.60
2023-06-04T22:00:32.842Z,101412.58
2023-06-04T22:03:04.094Z,101413.23
2023-06-04T22:05:34.935Z,101412.05
2023-06-04T22:08:06.465Z,101412.92
2023-06-04T22:10:37.312Z,101414.27
2023-06-04T22:13:08.328Z,101416.06
2023-06-04T22:15:40.222Z,101422.49
2023-06-04T22:18:11.392Z,101424.48
2023-06-04T22:20:42.450Z,101423.27
2023-06-04T22:23:13.066Z,101422.56
2023-06-04T22:25:43.559Z,101425.60
2023-06-04T22:28:14.565Z,101430.23
2023-06-04T22:30:45.059Z,101425.96
2023-06-04T22:33:16.070Z,101430.83
2023-06-04T22:35:46.596Z,101430.73
2023-06-04T22:38:17.262Z,101429.85
2023-06-04T22:40:48.302Z,101428.66
2023-06-04T22:43:19.349Z,101426.55
2023-06-04T22:45:50.195Z,101426.20
2023-06-04T22:48:20.738Z,101425.23
2023-06-04T22:50:52.556Z,101423.21
2023-06-04T22:53:24.137Z,101427.18
2023-06-04T22:55:54.779Z,101430.59
2023-06-04T22:58:25.751Z,101434.40
2023-06-04T23:00:56.353Z,101432.08
2023-06-04T23:03:28.892Z,101429.48
2023-06-04T23:06:00.478Z,101431.06
2023-06-04T23:08:31.437Z,101431.70
2023-06-04T23:11:02.292Z,101439.48
2023-06-04T23:13:32.889Z,101438.48
2023-06-04T23:16:03.892Z,101441.00
2023-06-04T23:18:34.543Z,101441.52
2023-06-04T23:21:05.756Z,101441.67
2023-06-04T23:23:36.907Z,101443.86
2023-06-04T23:26:07.594Z,101445.08
2023-06-04T23:28:38.648Z,101448.90
2023-06-04T23:31:09.425Z,101447.75
2023-06-04T23:33:40.084Z,101448.71
2023-06-04T23:36:10.933Z,101447.44
2023-06-04T23:38:41.862Z,101444.56
2023-06-04T23:41:12.817Z,101444.20
2023-06-04T23:43:43.598Z,101444.36
2023-06-04T23:46:14.906Z,101442.73
2023-06-04T23:48:45.966Z,101440.10
2023-06-04T23:51:16.683Z,101441.96
2023-06-04T23:53:47.918Z,101442.85
2023-06-04T23:56:19.820Z,101442.05
2023-06-04T23:58:50.832Z,101447.21
